Time;durP1;ratioP1;P1;durP2;ratioP2;P2;SDS_P1;SDS_P2;PMS_P1;PMS_P2;Temp;Humidity;BMP_temperature;BMP_pressure;BME280_temperature;BME280_humidity;BME280_pressure;Samples;Min_cycle;Max_cycle;Signal;HPM_P1;HPM_P2
2022/06/18 00:01:33;;;;;;;6.43;3.93;;;17.70;87.40;;;;;;5055776;28;21208;-48
2022/06/18 00:04:00;;;;;;;4.23;3.70;;;17.60;86.20;;;;;;5061393;28;20552;-48
2022/06/18 00:06:28;;;;;;;3.77;3.47;;;17.60;85.60;;;;;;5064409;28;20523;-49
2022/06/18 00:08:54;;;;;;;4.27;3.70;;;17.50;83.50;;;;;;5065787;28;21031;-57
2022/06/18 00:14:05;;;;;;;4.33;3.93;;;17.40;82.80;;;;;;5063049;28;20467;-57
2022/06/18 00:16:33;;;;;;;5.20;4.10;;;17.40;81.80;;;;;;5061034;28;20492;-56
2022/06/18 00:18:59;;;;;;;5.67;4.20;;;17.40;81.00;;;;;;5056449;28;20454;-57
2022/06/18 00:21:28;;;;;;;4.47;3.50;;;17.30;79.30;;;;;;5065707;28;20524;-57
2022/06/18 00:23:54;;;;;;;4.27;3.87;;;17.30;94.10;;;;;;5069418;28;20508;-57
2022/06/18 00:26:21;;;;;;;4.13;3.63;;;17.30;90.70;;;;;;5068593;28;20877;-56
2022/06/18 00:28:48;;;;;;;13.70;4.00;;;17.20;90.80;;;;;;5060459;28;20516;-57
2022/06/18 00:31:15;;;;;;;7.83;4.30;;;17.20;85.90;;;;;;5067624;28;20468;-57
2022/06/18 00:33:43;;;;;;;11.80;4.50;;;17.20;90.50;;;;;;5065873;28;20547;-56
2022/06/18 00:36:15;;;;;;;6.80;4.37;;;17.20;89.70;;;;;;5066067;28;20934;-57
2022/06/18 00:38:44;;;;;;;3.83;3.50;;;17.20;92.40;;;;;;5063674;28;20943;-57
2022/06/18 00:41:17;;;;;;;5.87;3.90;;;17.20;89.70;;;;;;5069273;28;21118;-56
2022/06/18 00:43:47;;;;;;;4.30;3.83;;;17.10;85.20;;;;;;5067126;28;20581;-57
2022/06/18 00:46:28;;;;;;;4.73;4.13;;;17.20;88.30;;;;;;5062271;28;20504;-58
2022/06/18 00:49:02;;;;;;;11.17;4.67;;;17.20;79.00;;;;;;5066982;28;20512;-57
2022/06/18 00:51:33;;;;;;;6.10;4.40;;;17.10;84.90;;;;;;5064055;28;20496;-58
2022/06/18 00:54:07;;;;;;;4.30;4.00;;;17.10;83.30;;;;;;5065258;28;20509;-58
2022/06/18 00:56:39;;;;;;;3.97;3.73;;;17.10;72.40;;;;;;5060505;28;20904;-56
2022/06/18 00:59:11;;;;;;;4.67;4.27;;;17.00;74.50;;;;;;5072503;28;20969;-58
2022/06/18 01:01:43;;;;;;;5.77;4.57;;;17.00;76.70;;;;;;5061483;28;20500;-56
2022/06/18 01:04:30;;;;;;;6.50;3.90;;;17.00;71.60;;;;;;5062616;28;21022;-57
2022/06/18 01:07:01;;;;;;;4.40;4.10;;;17.00;77.20;;;;;;5063383;28;20845;-56
2022/06/18 01:09:29;;;;;;;4.10;3.60;;;16.90;77.60;;;;;;5058337;28;21002;-56
2022/06/18 01:11:57;;;;;;;5.80;3.77;;;16.90;66.60;;;;;;5063438;28;20504;-57
2022/06/18 01:14:25;;;;;;;9.70;4.80;;;16.90;67.30;;;;;;5061459;28;21046;-57
2022/06/18 01:16:54;;;;;;;4.63;4.20;;;16.90;70.00;;;;;;5064687;28;20885;-57
2022/06/18 01:19:29;;;;;;;5.27;3.80;;;16.90;69.50;;;;;;5060121;28;20461;-57
2022/06/18 01:22:04;;;;;;;7.50;3.93;;;16.90;68.90;;;;;;5058040;28;20492;-57
2022/06/18 01:24:38;;;;;;;4.57;3.90;;;16.80;65.50;;;;;;5063450;28;20514;-57
2022/06/18 01:27:06;;;;;;;4.13;3.63;;;16.80;69.60;;;;;;5068845;28;20456;-57
2022/06/18 01:29:33;;;;;;;9.10;4.37;;;16.80;63.10;;;;;;5065462;28;20516;-57
2022/06/18 01:32:01;;;;;;;4.30;3.70;;;16.70;53.40;;;;;;5062753;28;20492;-57
2022/06/18 01:34:28;;;;;;;4.83;4.30;;;16.70;65.80;;;;;;5063025;28;20462;-57
2022/06/18 01:36:57;;;;;;;7.20;4.23;;;16.70;60.70;;;;;;5068395;28;20484;-57
2022/06/18 01:39:26;;;;;;;4.10;3.80;;;16.70;64.60;;;;;;5058661;28;20476;-57
2022/06/18 01:41:57;;;;;;;5.40;4.07;;;16.70;61.50;;;;;;5054098;28;20495;-57
2022/06/18 01:44:40;;;;;;;4.87;4.47;;;16.70;63.60;;;;;;5056513;28;20481;-57
2022/06/18 01:47:11;;;;;;;8.60;4.80;;;16.70;65.90;;;;;;5066584;28;20460;-57
2022/06/18 01:49:41;;;;;;;6.03;4.10;;;16.70;65.80;;;;;;5066278;28;21559;-57
2022/06/18 01:52:10;;;;;;;10.63;5.00;;;16.80;66.80;;;;;;5064540;28;20508;-56
2022/06/18 01:54:39;;;;;;;8.93;4.60;;;16.80;64.20;;;;;;5055789;28;20496;-57
2022/06/18 01:57:15;;;;;;;12.73;4.60;;;16.70;71.60;;;;;;5055004;28;21031;-57
2022/06/18 01:59:46;;;;;;;6.83;4.33;;;16.70;65.40;;;;;;5060946;28;20539;-57
2022/06/18 02:02:13;;;;;;;4.87;4.00;;;16.80;73.50;;;;;;5066091;28;20457;-57
2022/06/18 02:04:41;;;;;;;6.17;4.77;;;16.80;69.80;;;;;;5062689;28;21010;-57
2022/06/18 02:07:08;;;;;;;7.83;5.00;;;16.80;68.50;;;;;;5065278;28;20457;-57
2022/06/18 02:09:38;;;;;;;4.30;4.00;;;16.70;73.80;;;;;;5066961;28;20580;-56
2022/06/18 02:12:10;;;;;;;9.77;5.83;;;16.70;70.70;;;;;;5058937;28;20549;-57
2022/06/18 02:14:39;;;;;;;5.73;3.70;;;16.70;80.80;;;;;;5061614;28;20536;-57
2022/06/18 02:17:09;;;;;;;4.53;4.13;;;16.80;76.30;;;;;;5064913;28;20457;-57
2022/06/18 02:19:36;;;;;;;4.33;3.90;;;16.80;75.30;;;;;;5066771;28;20540;-58
2022/06/18 02:22:05;;;;;;;6.03;4.03;;;16.70;80.70;;;;;;5062255;28;20497;-57
2022/06/18 02:24:32;;;;;;;4.43;4.00;;;16.70;71.50;;;;;;5067231;28;20536;-57
2022/06/18 02:26:58;;;;;;;7.33;4.37;;;16.70;78.50;;;;;;5067021;28;20564;-57
2022/06/18 02:29:29;;;;;;;4.50;4.10;;;16.70;78.70;;;;;;5062114;28;20567;-57
2022/06/18 02:31:55;;;;;;;6.87;4.30;;;16.70;73.90;;;;;;5067237;28;21815;-57
2022/06/18 02:34:27;;;;;;;5.03;4.57;;;16.70;70.90;;;;;;5069930;28;20496;-56
2022/06/18 02:36:54;;;;;;;4.53;4.13;;;16.60;74.40;;;;;;5065416;28;20453;-56
2022/06/18 02:39:27;;;;;;;5.97;4.27;;;16.60;71.50;;;;;;5067969;28;20453;-57
2022/06/18 02:42:00;;;;;;;4.33;3.93;;;16.60;75.00;;;;;;5061130;28;20547;-56
2022/06/18 02:44:29;;;;;;;4.20;3.90;;;16.50;75.70;;;;;;5059955;28;20492;-57
2022/06/18 02:46:56;;;;;;;7.63;3.63;;;16.50;70.40;;;;;;5068692;28;20488;-57
2022/06/18 02:49:23;;;;;;;4.33;4.00;;;16.50;73.30;;;;;;5062909;28;20560;-56
2022/06/18 02:51:50;;;;;;;6.50;3.70;;;16.50;68.80;;;;;;5069929;28;20556;-56
2022/06/18 02:54:19;;;;;;;4.80;3.80;;;16.50;74.60;;;;;;5065257;28;20575;-57
2022/06/18 02:56:47;;;;;;;3.77;3.47;;;16.50;80.40;;;;;;5064924;28;21025;-56
2022/06/18 02:59:13;;;;;;;5.73;3.70;;;16.50;84.20;;;;;;5067016;28;21006;-56
2022/06/18 03:01:41;;;;;;;3.87;3.57;;;16.50;74.10;;;;;;5064556;28;20548;-57
2022/06/18 03:04:07;;;;;;;4.67;3.53;;;16.50;73.90;;;;;;5061004;28;20576;-56
2022/06/18 03:06:34;;;;;;;4.23;3.93;;;16.50;77.50;;;;;;5059552;28;20541;-56
2022/06/18 03:09:01;;;;;;;3.70;3.40;;;16.50;75.50;;;;;;5065261;28;20575;-56
2022/06/18 03:14:16;;;;;;;4.93;3.67;;;16.50;73.20;;;;;;5063434;28;20468;-57
2022/06/18 03:16:44;;;;;;;6.20;3.83;;;16.50;71.10;;;;;;5065923;28;20489;-57
2022/06/18 03:19:30;;;;;;;8.43;3.93;;;16.50;68.80;;;;;;5068313;28;20841;-58
2022/06/18 03:22:04;;;;;;;4.30;3.90;;;16.50;70.50;;;;;;5068442;28;20461;-57
2022/06/18 03:24:30;;;;;;;7.60;3.37;;;16.50;69.30;;;;;;5061330;28;20458;-57
2022/06/18 03:26:57;;;;;;;4.77;3.47;;;16.40;74.20;;;;;;5057872;28;20548;-57
2022/06/18 03:29:24;;;;;;;4.83;3.37;;;16.50;70.40;;;;;;5065090;28;20658;-56
2022/06/18 03:31:52;;;;;;;6.07;4.43;;;16.50;69.30;;;;;;5063296;28;20457;-56
2022/06/18 03:34:18;;;;;;;6.33;4.10;;;16.50;68.80;;;;;;5068625;28;20522;-57
2022/06/18 03:36:45;;;;;;;7.83;4.97;;;16.50;66.40;;;;;;5062728;28;20493;-57
2022/06/18 03:39:12;;;;;;;5.80;4.50;;;16.50;66.40;;;;;;5057932;28;20450;-57
2022/06/18 03:41:39;;;;;;;4.97;4.57;;;16.50;66.90;;;;;;5056317;28;20549;-56
2022/06/18 03:44:05;;;;;;;5.00;4.50;;;16.50;65.80;;;;;;5061078;28;20528;-57
2022/06/18 03:46:32;;;;;;;5.20;4.70;;;16.50;65.30;;;;;;5060620;28;20532;-57
2022/06/18 03:49:02;;;;;;;4.70;4.30;;;16.50;63.00;;;;;;5066355;28;20480;-56
2022/06/18 03:51:29;;;;;;;4.97;4.57;;;16.50;65.40;;;;;;5065263;28;20507;-56
2022/06/18 03:53:56;;;;;;;11.43;4.50;;;16.50;61.50;;;;;;5053182;28;20615;-56
2022/06/18 03:56:25;;;;;;;6.87;4.50;;;16.50;63.30;;;;;;5062972;28;20540;-55
2022/06/18 03:58:53;;;;;;;5.83;4.70;;;16.50;58.50;;;;;;5068284;28;20541;-55
2022/06/18 04:01:22;;;;;;;5.50;4.97;;;16.50;58.40;;;;;;5054886;28;21373;-56
2022/06/18 04:03:49;;;;;;;5.43;4.93;;;16.50;58.50;;;;;;5068191;28;20564;-55
2022/06/18 04:06:17;;;;;;;5.17;4.67;;;16.50;57.20;;;;;;5064686;28;21017;-55
2022/06/18 04:08:44;;;;;;;4.67;4.27;;;16.50;55.80;;;;;;5060350;28;20567;-56
2022/06/18 04:11:11;;;;;;;9.83;4.63;;;16.60;57.20;;;;;;5057769;28;20549;-56
2022/06/18 04:13:38;;;;;;;4.57;4.17;;;16.60;56.30;;;;;;5064956;28;21007;-56
2022/06/18 04:16:06;;;;;;;4.90;4.53;;;16.70;56.50;;;;;;5063139;28;20468;-55
2022/06/18 04:18:33;;;;;;;6.87;3.93;;;16.70;54.00;;;;;;5064889;28;20453;-55
2022/06/18 04:21:00;;;;;;;5.97;4.83;;;16.80;53.10;;;;;;5054218;28;20454;-56
2022/06/18 04:23:28;;;;;;;4.50;4.10;;;16.80;55.60;;;;;;5068903;28;20512;-56
2022/06/18 04:25:55;;;;;;;8.07;4.07;;;16.90;54.90;;;;;;5056601;28;20553;-56
2022/06/18 04:28:21;;;;;;;6.13;4.03;;;16.90;59.50;;;;;;5068771;28;20496;-55
2022/06/18 04:30:48;;;;;;;5.57;4.53;;;17.00;60.40;;;;;;5062214;28;20543;-55
2022/06/18 04:33:15;;;;;;;6.10;3.70;;;17.10;60.30;;;;;;5060958;28;20536;-56
2022/06/18 04:35:42;;;;;;;5.27;4.30;;;17.20;70.00;;;;;;5057885;28;20887;-56
2022/06/18 04:38:11;;;;;;;7.40;3.70;;;17.30;69.80;;;;;;5065360;28;20552;-55
2022/06/18 04:40:39;;;;;;;6.43;3.50;;;17.40;71.90;;;;;;5063040;28;20481;-57
2022/06/18 04:43:07;;;;;;;6.23;3.30;;;17.50;76.80;;;;;;5067147;28;20551;-55
2022/06/18 04:45:35;;;;;;;4.10;3.47;;;17.60;90.10;;;;;;5064506;28;21043;-55
2022/06/18 04:48:02;;;;;;;3.13;2.93;;;17.70;90.50;;;;;;5063808;28;20555;-56
2022/06/18 04:50:31;;;;;;;8.33;3.43;;;17.90;97.30;;;;;;5061644;28;21081;-55
2022/06/18 04:52:58;;;;;;;8.83;3.10;;;18.00;99.90;;;;;;5068197;28;20575;-55
2022/06/18 04:55:24;;;;;;;10.53;3.00;;;18.10;99.90;;;;;;5067013;28;20489;-55
2022/06/18 04:57:53;;;;;;;2.83;2.63;;;18.20;99.90;;;;;;5063433;28;21026;-55
2022/06/18 05:00:19;;;;;;;12.47;3.00;;;18.40;99.90;;;;;;5067236;28;20540;-56
2022/06/18 05:02:46;;;;;;;3.30;2.93;;;18.50;99.90;;;;;;5056028;28;20505;-55
2022/06/18 05:05:15;;;;;;;6.80;2.20;;;18.60;99.90;;;;;;5060767;28;20503;-55
2022/06/18 05:07:42;;;;;;;3.60;2.63;;;18.70;99.90;;;;;;5062706;28;20552;-56
2022/06/18 05:10:10;;;;;;;7.27;2.77;;;18.90;99.90;;;;;;5054444;28;20532;-56
2022/06/18 05:12:36;;;;;;;5.20;3.10;;;19.00;99.90;;;;;;5058726;28;20833;-55
2022/06/18 05:15:06;;;;;;;6.00;2.50;;;19.20;99.90;;;;;;5065248;28;20581;-55
2022/06/18 05:17:34;;;;;;;3.53;2.27;;;19.30;99.90;;;;;;5065687;28;20587;-56
2022/06/18 05:20:02;;;;;;;3.47;3.17;;;19.50;99.90;;;;;;5067617;28;20543;-55
2022/06/18 05:22:28;;;;;;;3.17;2.33;;;19.60;99.90;;;;;;5057771;28;20573;-56
2022/06/18 05:24:55;;;;;;;4.27;2.63;;;19.70;99.90;;;;;;5063646;28;20580;-56
2022/06/18 05:27:26;;;;;;;3.23;2.57;;;19.80;99.90;;;;;;5067810;28;20537;-56
2022/06/18 05:29:54;;;;;;;6.50;2.47;;;19.90;99.90;;;;;;5059482;28;20560;-55
2022/06/18 05:32:22;;;;;;;6.27;2.47;;;20.10;99.90;;;;;;5066796;28;20560;-56
2022/06/18 05:34:48;;;;;;;6.50;2.67;;;20.20;99.90;;;;;;5065748;28;20543;-55
2022/06/18 05:37:17;;;;;;;2.40;2.30;;;20.30;99.90;;;;;;5053433;28;20545;-57
2022/06/18 05:39:43;;;;;;;2.50;2.40;;;20.40;99.90;;;;;;5063700;28;20620;-56
2022/06/18 05:42:10;;;;;;;7.23;2.43;;;20.50;99.90;;;;;;5055317;28;20557;-56
2022/06/18 05:44:37;;;;;;;2.50;2.30;;;20.60;99.90;;;;;;5058051;28;21038;-56
2022/06/18 05:47:12;;;;;;;2.87;2.50;;;20.70;99.90;;;;;;5055655;28;20541;-56
2022/06/18 05:49:40;;;;;;;6.00;2.33;;;20.80;99.90;;;;;;5065424;28;20566;-56
2022/06/18 05:52:07;;;;;;;12.73;2.70;;;21.00;99.90;;;;;;5060088;28;20507;-56
2022/06/18 05:54:34;;;;;;;3.40;2.03;;;21.10;99.90;;;;;;5063413;28;21013;-55
2022/06/18 05:57:00;;;;;;;2.80;2.53;;;21.20;99.90;;;;;;5058748;28;21426;-56
2022/06/18 05:59:27;;;;;;;3.00;2.90;;;21.20;99.90;;;;;;5063852;28;20570;-55
2022/06/18 06:01:56;;;;;;;7.87;2.53;;;21.20;99.90;;;;;;5054332;28;20561;-55
2022/06/18 06:04:22;;;;;;;3.40;3.07;;;21.30;99.90;;;;;;5067564;28;20588;-55
2022/06/18 06:06:51;;;;;;;8.63;2.47;;;21.40;99.90;;;;;;5070963;28;20543;-55
2022/06/18 06:11:28;;;;;;;2.80;2.60;;;21.50;99.90;;;;;;5061873;28;20491;-49
2022/06/18 06:12:04;;;;;;;3.07;2.77;;;21.60;99.90;;;;;;5064283;28;20460;-49
2022/06/18 06:14:31;;;;;;;2.93;2.73;;;21.70;99.90;;;;;;5068073;28;20449;-50
2022/06/18 06:16:58;;;;;;;5.00;2.60;;;21.70;99.90;;;;;;5065574;28;20536;-49
2022/06/18 06:19:24;;;;;;;4.10;3.23;;;21.80;99.90;;;;;;5065833;28;20506;-49
2022/06/18 06:21:52;;;;;;;7.27;3.03;;;21.90;99.90;;;;;;5065321;28;20539;-49
2022/06/18 06:24:19;;;;;;;4.37;3.60;;;21.90;99.90;;;;;;5069277;28;20580;-49
2022/06/18 06:26:45;;;;;;;4.00;3.60;;;22.00;99.90;;;;;;5064539;28;20544;-49
2022/06/18 06:29:12;;;;;;;4.00;3.40;;;22.10;99.90;;;;;;5062798;28;20465;-49
2022/06/18 06:31:38;;;;;;;6.93;3.70;;;22.20;99.90;;;;;;5057633;28;20531;-49
2022/06/18 06:34:05;;;;;;;8.60;3.80;;;22.30;99.90;;;;;;5062139;28;20877;-48
2022/06/18 06:36:31;;;;;;;7.40;3.00;;;22.30;99.90;;;;;;5069389;28;21001;-49
2022/06/18 06:38:59;;;;;;;4.87;3.17;;;22.30;99.90;;;;;;5068257;28;20484;-48
2022/06/18 06:41:28;;;;;;;4.63;3.40;;;22.40;99.90;;;;;;5065505;28;20532;-48
2022/06/18 06:43:55;;;;;;;3.67;3.37;;;22.60;99.90;;;;;;5067237;28;20614;-49
2022/06/18 06:46:22;;;;;;;4.23;2.97;;;22.70;99.90;;;;;;5062927;28;20628;-49
2022/06/18 06:48:49;;;;;;;3.00;2.80;;;22.80;99.90;;;;;;5062995;28;20457;-49
2022/06/18 06:51:17;;;;;;;6.50;2.70;;;22.80;99.90;;;;;;5069055;28;20480;-48
2022/06/18 06:53:44;;;;;;;2.70;2.40;;;22.90;99.90;;;;;;5065306;28;20896;-49
2022/06/18 06:58:58;;;;;;;2.23;2.13;;;23.10;99.90;;;;;;5064009;28;20479;-49
2022/06/18 07:01:25;;;;;;;2.73;2.03;;;23.30;99.90;;;;;;5060922;28;20548;-49
2022/06/18 07:03:52;;;;;;;3.77;2.57;;;23.30;99.90;;;;;;5068243;28;20564;-49
2022/06/18 07:06:19;;;;;;;2.57;2.27;;;23.50;99.90;;;;;;5056478;28;21019;-49
2022/06/18 07:08:46;;;;;;;11.20;3.00;;;23.60;99.90;;;;;;5065289;28;20454;-48
2022/06/18 07:11:15;;;;;;;3.97;2.60;;;23.80;99.90;;;;;;5068786;28;20560;-49
2022/06/18 07:13:42;;;;;;;6.23;2.47;;;23.80;99.90;;;;;;5064524;28;20516;-49
2022/06/18 07:16:11;;;;;;;7.60;2.33;;;23.90;99.90;;;;;;5062731;28;20596;-49
2022/06/18 07:18:38;;;;;;;2.83;1.90;;;24.00;99.90;;;;;;5062885;28;20547;-49
2022/06/18 07:21:08;;;;;;;4.10;2.10;;;24.10;99.90;;;;;;5063271;28;20827;-49
2022/06/18 07:23:34;;;;;;;2.10;2.00;;;24.10;99.90;;;;;;5063434;28;20581;-49
2022/06/18 07:26:01;;;;;;;6.70;1.80;;;24.20;99.90;;;;;;5065324;28;20538;-48
2022/06/18 07:28:29;;;;;;;1.90;1.80;;;24.30;99.90;;;;;;5059435;28;20491;-48
2022/06/18 07:30:56;;;;;;;1.80;1.70;;;24.40;99.90;;;;;;5063295;28;20560;-49
2022/06/18 07:33:24;;;;;;;2.23;1.70;;;24.50;99.90;;;;;;5062541;28;20567;-50
2022/06/18 07:35:52;;;;;;;1.87;1.77;;;24.60;99.90;;;;;;5061680;28;20649;-49
2022/06/18 07:38:19;;;;;;;4.17;2.10;;;24.70;99.90;;;;;;5065499;28;20584;-49
2022/06/18 07:40:50;;;;;;;4.67;1.80;;;24.80;99.90;;;;;;5054275;28;20549;-49
2022/06/18 07:43:21;;;;;;;7.90;1.73;;;24.90;99.90;;;;;;5055006;28;20538;-50
2022/06/18 07:45:48;;;;;;;2.30;2.03;;;24.90;99.90;;;;;;5061059;28;20493;-49
2022/06/18 07:48:15;;;;;;;6.93;1.90;;;24.90;99.90;;;;;;5068951;28;20468;-48
2022/06/18 07:50:43;;;;;;;3.07;1.70;;;24.90;99.90;;;;;;5060900;28;20983;-49
2022/06/18 07:53:15;;;;;;;6.93;1.90;;;25.00;99.90;;;;;;5059774;28;20480;-49
2022/06/18 07:55:41;;;;;;;8.80;1.80;;;25.10;99.90;;;;;;5062222;28;20552;-48
2022/06/18 07:58:08;;;;;;;1.80;1.70;;;25.30;99.90;;;;;;5064952;28;20532;-48
2022/06/18 08:00:35;;;;;;;5.47;1.47;;;25.40;99.90;;;;;;5062018;28;20544;-48
2022/06/18 08:03:05;;;;;;;5.17;1.47;;;25.50;99.90;;;;;;5061735;28;20998;-49
2022/06/18 08:08:54;;;;;;;9.00;1.90;;;25.80;99.90;;;;;;5049110;28;20416;-49
2022/06/18 08:11:21;;;;;;;5.70;2.20;;;25.90;99.90;;;;;;5064462;28;20487;-49
2022/06/18 08:13:49;;;;;;;5.53;2.60;;;26.00;99.90;;;;;;5058693;28;20493;-49
2022/06/18 08:16:17;;;;;;;5.10;2.33;;;26.20;99.90;;;;;;5058967;28;20461;-48
2022/06/18 08:18:45;;;;;;;3.10;2.40;;;26.30;99.90;;;;;;5055639;28;20479;-49
2022/06/18 08:21:16;;;;;;;3.70;2.50;;;26.40;99.90;;;;;;5058481;28;22186;-48
2022/06/18 08:23:44;;;;;;;9.50;1.97;;;26.50;99.90;;;;;;5063139;28;21106;-48
2022/06/18 08:26:10;;;;;;;3.03;2.70;;;26.50;99.90;;;;;;5065238;28;20502;-49
2022/06/18 08:28:38;;;;;;;9.30;2.60;;;26.70;99.90;;;;;;5064170;28;20510;-49
2022/06/18 08:31:06;;;;;;;10.97;2.00;;;26.80;99.90;;;;;;5053752;28;20477;-48
2022/06/18 08:33:33;;;;;;;17.03;1.93;;;26.90;99.90;;;;;;5058701;28;20489;-48
2022/06/18 08:36:03;;;;;;;6.10;2.27;;;27.00;99.90;;;;;;5060134;28;20578;-48
2022/06/18 08:38:31;;;;;;;6.23;2.30;;;27.20;99.90;;;;;;5065163;28;20959;-48
2022/06/18 08:41:08;;;;;;;3.00;2.10;;;27.30;99.90;;;;;;5063222;28;20529;-48
2022/06/18 08:43:59;;;;;;;3.43;1.90;;;27.40;99.90;;;;;;5065982;28;20496;-50
2022/06/18 08:46:35;;;;;;;7.80;1.70;;;27.50;99.90;;;;;;5071945;28;20512;-48
2022/06/18 08:49:30;;;;;;;12.47;2.70;;;27.60;99.90;;;;;;5061373;28;21037;-49
2022/06/18 08:52:08;;;;;;;9.83;1.73;;;27.70;99.90;;;;;;5060671;28;20518;-48
2022/06/18 08:54:46;;;;;;;5.47;1.40;;;27.80;99.90;;;;;;5063930;28;20484;-49
2022/06/18 08:57:19;;;;;;;1.77;1.27;;;27.90;99.90;;;;;;5064464;28;20456;-49
2022/06/18 08:59:59;;;;;;;5.20;1.80;;;27.90;99.90;;;;;;5055656;28;20517;-48
2022/06/18 09:02:32;;;;;;;7.07;2.20;;;28.10;99.90;;;;;;5060036;28;20473;-48
2022/06/18 09:05:09;;;;;;;5.40;1.90;;;28.20;99.90;;;;;;5063665;28;20449;-49
2022/06/18 09:07:59;;;;;;;1.90;1.63;;;28.30;99.90;;;;;;5063030;28;20452;-49
2022/06/18 09:10:38;;;;;;;3.70;1.50;;;28.50;99.90;;;;;;5061263;28;20986;-48
2022/06/18 09:13:09;;;;;;;5.73;1.97;;;28.60;99.90;;;;;;5067259;28;20476;-50
2022/06/18 09:15:40;;;;;;;5.67;2.00;;;28.70;99.90;;;;;;5056948;28;20453;-48
2022/06/18 09:18:13;;;;;;;14.63;2.03;;;28.70;99.90;;;;;;5063222;28;20458;-49
2022/06/18 09:20:45;;;;;;;3.87;1.90;;;28.70;99.90;;;;;;5062073;28;20449;-49
2022/06/18 09:23:20;;;;;;;15.20;1.93;;;28.70;99.90;;;;;;5065945;28;20485;-50
2022/06/18 09:25:52;;;;;;;5.07;1.83;;;28.80;99.90;;;;;;5065121;28;20453;-48
2022/06/18 09:28:24;;;;;;;2.17;1.70;;;28.80;99.90;;;;;;5067087;28;20457;-48
2022/06/18 09:30:57;;;;;;;2.53;1.97;;;28.90;99.90;;;;;;5058143;28;20940;-48
2022/06/18 09:33:31;;;;;;;5.30;1.80;;;28.90;99.90;;;;;;5059043;28;20472;-48
2022/06/18 09:36:01;;;;;;;3.00;1.93;;;28.90;99.90;;;;;;5059893;28;20461;-48
2022/06/18 09:38:34;;;;;;;8.20;1.67;;;29.00;99.90;;;;;;5059631;28;20843;-49
2022/06/18 09:41:05;;;;;;;2.10;1.90;;;29.20;99.90;;;;;;5056355;28;20453;-48
2022/06/18 09:43:42;;;;;;;3.50;2.00;;;29.20;99.90;;;;;;5056228;28;21256;-49
2022/06/18 09:46:13;;;;;;;1.37;1.30;;;29.30;99.90;;;;;;5059260;28;20938;-48
2022/06/18 09:48:39;;;;;;;5.67;2.47;;;29.50;99.90;;;;;;5069330;28;20469;-49
2022/06/18 09:51:18;;;;;;;5.30;2.17;;;29.60;99.90;;;;;;5065207;28;20469;-49
2022/06/18 09:53:47;;;;;;;3.33;1.70;;;29.50;99.90;;;;;;5066408;28;20487;-49
2022/06/18 09:56:16;;;;;;;9.73;2.20;;;29.60;99.90;;;;;;5065471;28;20919;-50
2022/06/18 09:58:46;;;;;;;6.27;2.73;;;29.70;99.90;;;;;;5055984;28;20461;-49
2022/06/18 10:01:16;;;;;;;3.07;1.90;;;29.80;99.90;;;;;;5063998;28;20461;-49
2022/06/18 10:09:25;;;;;;;1.57;1.47;;;30.20;99.90;;;;;;5057166;28;21312;-49
2022/06/18 10:11:52;;;;;;;9.27;2.33;;;30.20;99.90;;;;;;5072473;28;20545;-49
2022/06/18 10:14:21;;;;;;;3.33;2.10;;;30.20;99.90;;;;;;5063321;28;20488;-49
2022/06/18 10:17:01;;;;;;;4.20;1.80;;;30.20;99.90;;;;;;5060465;28;20495;-49
2022/06/18 10:19:35;;;;;;;18.93;1.90;;;30.40;99.90;;;;;;5053634;28;20453;-48
2022/06/18 10:22:11;;;;;;;1.93;1.83;;;30.50;99.90;;;;;;5060798;28;20506;-49
2022/06/18 10:24:46;;;;;;;9.63;2.23;;;30.60;99.90;;;;;;5061099;28;20486;-48
2022/06/18 10:27:20;;;;;;;4.53;1.97;;;30.60;99.90;;;;;;5064129;28;20457;-47
2022/06/18 10:29:55;;;;;;;5.90;2.43;;;30.60;99.90;;;;;;5061242;28;20542;-49
2022/06/18 10:32:34;;;;;;;8.00;2.10;;;30.60;99.90;;;;;;5057596;28;20572;-49
2022/06/18 10:35:19;;;;;;;10.53;1.80;;;30.70;99.90;;;;;;5060211;28;20515;-49
2022/06/18 10:38:00;;;;;;;4.87;1.80;;;30.80;99.90;;;;;;5065930;28;20592;-49
2022/06/18 10:40:35;;;;;;;2.47;2.30;;;30.80;99.90;;;;;;5058487;28;20460;-49
2022/06/18 10:43:15;;;;;;;6.10;2.33;;;30.90;99.90;;;;;;5059873;28;21001;-48
2022/06/18 10:45:48;;;;;;;2.50;1.47;;;31.00;99.90;;;;;;5057937;28;21005;-48
2022/06/18 10:48:16;;;;;;;7.23;2.33;;;31.10;99.90;;;;;;5057960;28;20507;-48
2022/06/18 10:50:46;;;;;;;9.53;2.33;;;31.10;99.90;;;;;;5064911;28;20547;-49
2022/06/18 10:53:16;;;;;;;3.13;2.17;;;31.20;99.90;;;;;;5061697;28;20998;-49
2022/06/18 10:55:44;;;;;;;4.27;1.80;;;31.20;99.90;;;;;;5063505;28;20462;-50
2022/06/18 10:58:13;;;;;;;5.57;2.17;;;31.20;99.90;;;;;;5062770;28;20456;-50
2022/06/18 11:00:42;;;;;;;4.83;1.90;;;31.10;99.90;;;;;;5060757;28;20458;-50
2022/06/18 11:03:20;;;;;;;10.60;2.10;;;31.10;99.90;;;;;;5062268;28;20567;-49
2022/06/18 11:05:48;;;;;;;9.67;2.23;;;31.20;99.90;;;;;;5061368;28;20449;-49
2022/06/18 11:08:21;;;;;;;12.43;3.70;;;31.40;99.90;;;;;;5064800;28;20597;-49
2022/06/18 11:10:55;;;;;;;3.77;2.00;;;31.50;99.90;;;;;;5061236;28;20560;-48
2022/06/18 11:13:26;;;;;;;13.13;2.23;;;31.50;99.90;;;;;;5061272;28;20530;-49
2022/06/18 11:16:05;;;;;;;5.10;2.23;;;31.60;99.90;;;;;;5063189;28;20453;-49
2022/06/18 11:18:33;;;;;;;11.77;2.30;;;31.70;99.90;;;;;;5062870;28;20461;-49
2022/06/18 11:21:04;;;;;;;10.27;2.40;;;31.70;99.90;;;;;;5061567;28;20457;-48
2022/06/18 11:23:32;;;;;;;3.63;1.80;;;31.70;99.90;;;;;;5064055;28;20472;-49
2022/06/18 11:26:00;;;;;;;20.73;3.37;;;31.70;99.90;;;;;;5063686;28;20480;-49
2022/06/18 11:28:33;;;;;;;7.83;2.50;;;31.80;99.90;;;;;;5064368;28;20469;-49
2022/06/18 11:31:02;;;;;;;15.80;2.70;;;31.90;99.90;;;;;;5061827;28;20476;-49
2022/06/18 11:33:34;;;;;;;14.67;2.73;;;32.00;99.90;;;;;;5064386;28;20480;-48
2022/06/18 11:36:09;;;;;;;11.50;3.13;;;32.00;99.90;;;;;;5062116;28;20465;-48
2022/06/18 11:38:36;;;;;;;7.70;2.77;;;32.00;99.90;;;;;;5064212;28;20456;-49
2022/06/18 11:41:12;;;;;;;7.50;2.40;;;32.00;99.90;;;;;;5060653;28;20439;-49
2022/06/18 11:43:46;;;;;;;8.33;2.50;;;32.10;99.90;;;;;;5064845;28;20480;-48
2022/06/18 11:46:17;;;;;;;11.40;2.47;;;32.20;99.90;;;;;;5064293;28;20492;-50
2022/06/18 11:48:52;;;;;;;12.50;3.30;;;32.30;99.90;;;;;;5067065;28;21018;-49
2022/06/18 11:51:23;;;;;;;13.27;2.63;;;32.30;99.90;;;;;;5065319;28;20542;-48
2022/06/18 11:53:59;;;;;;;9.07;2.73;;;32.30;99.90;;;;;;5063821;28;20485;-49
2022/06/18 11:56:34;;;;;;;10.30;3.33;;;32.40;99.90;;;;;;5072494;28;20464;-49
2022/06/18 11:59:10;;;;;;;21.93;3.20;;;32.40;99.90;;;;;;5064551;28;20456;-49
2022/06/18 12:01:44;;;;;;;14.90;3.10;;;32.40;99.90;;;;;;5067286;28;20449;-49
2022/06/18 12:04:17;;;;;;;7.00;3.93;;;32.50;99.90;;;;;;5058245;28;20470;-50
2022/06/18 12:06:52;;;;;;;3.63;2.50;;;32.50;99.90;;;;;;5070132;28;20453;-50
2022/06/18 12:09:18;;;;;;;9.00;2.80;;;32.60;99.90;;;;;;5065783;28;20479;-50
2022/06/18 12:12:01;;;;;;;6.50;3.20;;;32.70;99.90;;;;;;5063475;28;20558;-50
2022/06/18 12:14:34;;;;;;;19.93;3.10;;;32.80;99.90;;;;;;5069722;28;20448;-50
2022/06/18 12:17:06;;;;;;;9.73;2.53;;;32.80;99.90;;;;;;5069129;28;20870;-50
2022/06/18 12:19:53;;;;;;;12.73;2.93;;;32.80;99.90;;;;;;5060466;28;21024;-50
2022/06/18 12:22:28;;;;;;;4.50;2.30;;;32.70;99.90;;;;;;5062064;28;20461;-50
2022/06/18 12:25:06;;;;;;;10.03;3.00;;;32.70;99.90;;;;;;5070082;28;20505;-50
2022/06/18 12:27:39;;;;;;;10.23;2.70;;;32.80;99.90;;;;;;5060410;28;20496;-50
2022/06/18 12:30:11;;;;;;;30.70;3.50;;;32.80;99.90;;;;;;5062081;28;20468;-50
2022/06/18 12:32:51;;;;;;;24.90;3.70;;;32.80;99.90;;;;;;5061638;28;20484;-49
2022/06/18 12:35:26;;;;;;;11.43;3.10;;;32.80;99.90;;;;;;5061903;28;20453;-50
2022/06/18 12:38:02;;;;;;;10.83;2.63;;;32.90;99.90;;;;;;5063184;28;20456;-50
2022/06/18 12:40:36;;;;;;;22.80;3.50;;;33.00;99.90;;;;;;5062655;28;20449;-50
2022/06/18 12:43:11;;;;;;;18.03;3.10;;;33.10;99.90;;;;;;5064435;28;20530;-50
2022/06/18 12:45:46;;;;;;;9.30;3.73;;;33.10;99.90;;;;;;5060276;28;20456;-49
2022/06/18 12:48:23;;;;;;;13.87;4.00;;;33.10;99.90;;;;;;5058269;28;20468;-50
2022/06/18 12:50:59;;;;;;;10.27;3.40;;;33.20;99.90;;;;;;5060907;28;20444;-49
2022/06/18 12:53:41;;;;;;;13.30;3.70;;;33.20;99.90;;;;;;5060290;28;20473;-49
2022/06/18 12:56:17;;;;;;;18.90;3.40;;;33.10;99.90;;;;;;5064504;28;20453;-49
2022/06/18 12:58:53;;;;;;;15.23;3.80;;;33.20;99.90;;;;;;5067534;28;20497;-50
2022/06/18 13:01:28;;;;;;;13.00;3.77;;;33.10;99.90;;;;;;5060863;28;20947;-49
2022/06/18 13:04:08;;;;;;;8.93;3.10;;;33.10;99.90;;;;;;5062310;28;20476;-50
2022/06/18 13:06:43;;;;;;;16.70;3.47;;;33.20;99.90;;;;;;5059602;28;20453;-49
2022/06/18 13:09:21;;;;;;;18.40;3.60;;;33.30;99.90;;;;;;5053834;28;20461;-49
2022/06/18 13:12:03;;;;;;;17.90;4.20;;;33.30;99.90;;;;;;5060330;28;20532;-49
2022/06/18 13:14:45;;;;;;;23.97;2.93;;;33.30;99.90;;;;;;5056279;28;20468;-50
2022/06/18 13:17:17;;;;;;;18.30;3.50;;;33.40;99.90;;;;;;5062081;28;20469;-50
2022/06/18 13:19:48;;;;;;;19.43;3.37;;;33.40;99.90;;;;;;5066008;28;20462;-50